createdAt,value
2019-04-22T00:00:46.530Z,7.90
2019-04-22T00:03:16.774Z,8.00
2019-04-22T00:06:06.574Z,8.00
2019-04-22T00:08:46.304Z,7.90
2019-04-22T00:11:11.026Z,8.00
2019-04-22T00:13:46.903Z,8.00
2019-04-22T00:16:07.150Z,8.00
2019-04-22T00:18:54.834Z,8.00
2019-04-22T00:21:13.006Z,8.00
2019-04-22T00:23:49.695Z,8.00
2019-04-22T00:26:16.403Z,8.00
2019-04-22T00:28:50.004Z,8.00
2019-04-22T00:31:15.552Z,8.00
2019-04-22T00:33:48.086Z,8.00
2019-04-22T00:36:17.798Z,8.00
2019-04-22T00:38:51.641Z,8.00
2019-04-22T00:41:23.215Z,8.00
2019-04-22T00:43:58.157Z,8.00
2019-04-22T00:46:25.266Z,8.00
2019-04-22T00:49:18.983Z,8.00
2019-04-22T00:51:47.485Z,8.10
2019-04-22T00:53:54.624Z,8.10
2019-04-22T00:56:24.705Z,8.10
2019-04-22T00:58:50.221Z,8.10
2019-04-22T01:01:26.245Z,8.00
2019-04-22T01:06:25.838Z,8.00
2019-04-22T01:09:02.620Z,8.00
2019-04-22T01:11:37.845Z,7.90
2019-04-22T01:13:55.912Z,7.80
2019-04-22T01:16:32.432Z,7.80
2019-04-22T01:19:00.038Z,7.80
2019-04-22T01:21:36.991Z,7.70
2019-04-22T01:23:59.880Z,7.70
2019-04-22T01:26:25.333Z,7.70
2019-04-22T01:28:53.579Z,7.60
2019-04-22T01:31:17.896Z,7.60
2019-04-22T01:33:48.324Z,7.60
2019-04-22T01:36:33.530Z,7.50
2019-04-22T01:39:02.379Z,7.50
2019-04-22T01:41:48.884Z,7.50
2019-04-22T01:44:31.434Z,7.60
2019-04-22T01:46:47.771Z,7.60
2019-04-22T01:49:14.683Z,7.60
2019-04-22T01:51:54.289Z,7.60
2019-04-22T01:56:47.085Z,7.60
2019-04-22T01:59:05.112Z,7.60
2019-04-22T02:04:23.229Z,7.60
2019-04-22T02:06:48.280Z,7.60
2019-04-22T02:09:24.494Z,7.60
2019-04-22T02:14:20.295Z,7.60
2019-04-22T02:16:50.315Z,7.70
2019-04-22T02:19:26.770Z,7.60
2019-04-22T02:21:48.803Z,7.60
2019-04-22T02:24:26.538Z,7.60
2019-04-22T02:29:27.188Z,7.60
2019-04-22T02:32:04.072Z,7.50
2019-04-22T02:36:56.349Z,7.50
2019-04-22T02:39:24.585Z,7.50
2019-04-22T02:41:54.980Z,7.50
2019-04-22T02:44:43.243Z,7.50
2019-04-22T02:47:36.498Z,7.50
2019-04-22T02:49:29.222Z,7.50
2019-04-22T02:52:06.847Z,7.50
2019-04-22T02:54:41.839Z,7.40
2019-04-22T02:57:03.722Z,7.40
2019-04-22T02:59:32.561Z,7.30
2019-04-22T03:02:19.034Z,7.30
2019-04-22T03:04:31.890Z,7.30
2019-04-22T03:06:55.637Z,7.30
2019-04-22T03:09:35.751Z,7.30
2019-04-22T03:12:11.306Z,7.30
2019-04-22T03:14:38.145Z,7.30
2019-04-22T03:17:11.237Z,7.30
2019-04-22T03:22:08.220Z,7.30
2019-04-22T03:27:02.954Z,7.30
2019-04-22T03:37:45.579Z,7.20
2019-04-22T03:42:45.679Z,7.20
2019-04-22T03:47:43.595Z,7.30
2019-04-22T03:50:20.690Z,7.30
2019-04-22T03:52:44.579Z,7.30
2019-04-22T03:55:09.223Z,7.30
2019-04-22T03:57:55.937Z,7.40
2019-04-22T04:00:17.952Z,7.40
2019-04-22T04:02:47.001Z,7.40
2019-04-22T04:05:29.550Z,7.40
2019-04-22T04:10:35.426Z,7.50
2019-04-22T04:13:02.872Z,7.50
2019-04-22T04:18:05.942Z,7.50
2019-04-22T04:25:32.112Z,7.70
2019-04-22T04:30:30.133Z,7.90
2019-04-22T04:32:54.722Z,8.00
2019-04-22T04:35:44.336Z,8.00
2019-04-22T04:40:31.172Z,8.10
2019-04-22T04:42:53.372Z,8.20
2019-04-22T04:48:01.136Z,8.30
2019-04-22T04:50:18.340Z,8.30
2019-04-22T04:58:09.983Z,8.40
2019-04-22T05:05:29.308Z,8.60
2019-04-22T05:08:19.811Z,8.60
2019-04-22T05:10:41.178Z,8.70
2019-04-22T05:13:07.155Z,8.70
2019-04-22T05:15:29.738Z,8.90
2019-04-22T05:18:05.806Z,9.00
2019-04-22T05:20:44.801Z,9.00
2019-04-22T05:22:51.613Z,9.00
2019-04-22T05:25:24.909Z,9.20
2019-04-22T05:28:11.870Z,9.20
2019-04-22T05:30:26.674Z,9.30
2019-04-22T05:32:59.229Z,9.50
2019-04-22T05:35:32.230Z,9.60
2019-04-22T05:38:06.536Z,9.70
2019-04-22T05:40:45.787Z,9.80
2019-04-22T05:43:00.174Z,9.90
2019-04-22T05:45:33.078Z,10.00
2019-04-22T05:48:01.307Z,10.10
2019-04-22T05:50:27.143Z,10.20
2019-04-22T05:53:00.784Z,10.30
2019-04-22T05:55:35.989Z,10.40
2019-04-22T06:01:07.196Z,10.60
2019-04-22T06:03:20.979Z,10.60
2019-04-22T06:05:41.730Z,10.70
2019-04-22T06:08:13.347Z,10.80
2019-04-22T06:10:45.849Z,11.00
2019-04-22T06:15:37.633Z,11.20
2019-04-22T06:18:22.737Z,11.30
2019-04-22T06:20:55.817Z,11.40
2019-04-22T06:23:28.447Z,11.50
2019-04-22T06:26:07.887Z,11.60
2019-04-22T06:28:31.042Z,11.60
2019-04-22T06:30:57.517Z,11.70
2019-04-22T06:35:56.353Z,11.90
2019-04-22T06:40:55.388Z,12.10
2019-04-22T06:43:24.507Z,12.20
2019-04-22T06:45:57.707Z,12.40
2019-04-22T06:48:23.732Z,12.50
2019-04-22T06:50:52.800Z,12.60
2019-04-22T06:53:31.148Z,12.70
2019-04-22T06:56:12.594Z,12.90
2019-04-22T06:58:33.606Z,13.20
2019-04-22T07:01:19.615Z,13.40
2019-04-22T07:03:44.175Z,13.80
2019-04-22T07:05:59.643Z,14.60
2019-04-22T07:09:00.804Z,15.60
2019-04-22T07:10:54.860Z,16.40
2019-04-22T07:16:00.384Z,17.30
2019-04-22T07:21:01.425Z,18.50
2019-04-22T07:23:37.516Z,18.70
2019-04-22T07:26:04.379Z,19.10
2019-04-22T07:28:29.991Z,19.30
2019-04-22T07:31:03.890Z,19.20
2019-04-22T07:33:37.916Z,19.10
2019-04-22T07:38:29.828Z,18.20
2019-04-22T07:41:05.643Z,18.40
2019-04-22T07:43:51.664Z,19.10
2019-04-22T07:46:09.579Z,19.00
2019-04-22T07:51:07.490Z,18.90
2019-04-22T07:53:33.848Z,19.30
2019-04-22T07:56:11.904Z,20.10
2019-04-22T07:58:43.322Z,20.40
2019-04-22T08:01:15.370Z,20.90
2019-04-22T08:03:53.381Z,21.10
2019-04-22T08:08:45.574Z,21.60
2019-04-22T08:11:30.103Z,21.70
2019-04-22T08:13:43.889Z,21.60
2019-04-22T08:16:16.835Z,22.60
2019-04-22T08:18:46.011Z,22.60
2019-04-22T08:21:09.468Z,22.70
2019-04-22T08:23:55.445Z,22.40
2019-04-22T08:26:25.127Z,23.30
2019-04-22T08:28:55.801Z,23.60
2019-04-22T08:31:20.384Z,24.50
2019-04-22T08:33:46.634Z,23.70
2019-04-22T08:38:55.974Z,24.30
2019-04-22T08:43:57.615Z,24.10
2019-04-22T08:46:36.499Z,24.80
2019-04-22T08:49:05.861Z,26.10
2019-04-22T08:51:25.066Z,26.30
2019-04-22T08:53:59.813Z,25.80
2019-04-22T08:56:33.675Z,25.90
2019-04-22T08:59:02.680Z,24.90
2019-04-22T09:01:28.310Z,24.40
2019-04-22T09:04:03.760Z,24.00
2019-04-22T09:06:48.004Z,23.20
2019-04-22T09:09:04.223Z,23.00
2019-04-22T09:11:35.614Z,23.10
2019-04-22T09:14:03.798Z,23.80
2019-04-22T09:24:04.963Z,24.00
2019-04-22T09:26:36.108Z,23.80
2019-04-22T09:29:06.480Z,24.30
2019-04-22T09:31:35.880Z,24.10
2019-04-22T09:34:06.800Z,23.70
2019-04-22T09:39:12.308Z,23.50
2019-04-22T09:41:42.993Z,24.30
2019-04-22T09:44:26.261Z,25.50
2019-04-22T09:46:44.075Z,25.20
2019-04-22T09:49:15.504Z,26.40
2019-04-22T09:51:36.944Z,26.70
2019-04-22T09:54:20.152Z,25.80
2019-04-22T09:56:43.770Z,26.30
2019-04-22T09:59:10.887Z,25.80
2019-04-22T10:01:47.363Z,24.70
2019-04-22T10:04:25.388Z,24.70
2019-04-22T10:06:54.457Z,25.20
2019-04-22T10:11:57.734Z,26.60
2019-04-22T10:19:21.504Z,25.10
2019-04-22T10:21:50.147Z,25.60
2019-04-22T10:24:13.513Z,25.40
2019-04-22T10:26:43.879Z,25.20
2019-04-22T10:29:18.253Z,24.80
2019-04-22T10:31:49.484Z,24.50
2019-04-22T10:34:09.299Z,24.30
2019-04-22T10:36:25.586Z,24.80
2019-04-22T10:38:54.809Z,24.20
2019-04-22T10:41:23.852Z,24.10
2019-04-22T10:43:52.978Z,24.10
2019-04-22T10:46:22.178Z,23.30
2019-04-22T10:48:52.648Z,22.30
2019-04-22T10:51:22.344Z,22.50
2019-04-22T10:53:51.326Z,22.30
2019-04-22T10:56:20.956Z,22.20
2019-04-22T10:58:50.801Z,21.50
2019-04-22T11:01:21.096Z,21.30
2019-04-22T11:03:51.120Z,21.30
2019-04-22T11:06:21.333Z,21.20
2019-04-22T11:08:56.196Z,20.70
2019-04-22T11:11:33.636Z,20.60
2019-04-22T11:13:51.960Z,20.80
2019-04-22T11:16:21.523Z,21.50
2019-04-22T11:18:51.719Z,22.30
2019-04-22T11:21:20.602Z,22.60
2019-04-22T11:23:50.409Z,22.30
2019-04-22T11:26:19.880Z,22.10
2019-04-22T11:28:49.663Z,22.00
2019-04-22T11:31:18.815Z,21.50
2019-04-22T11:33:48.390Z,21.20
2019-04-22T11:36:17.704Z,21.20
2019-04-22T11:38:53.010Z,21.00
2019-04-22T11:41:17.398Z,21.20
2019-04-22T11:43:47.357Z,21.00
2019-04-22T11:46:17.628Z,21.10
2019-04-22T11:48:47.731Z,21.00
2019-04-22T11:51:18.023Z,20.70
2019-04-22T11:53:47.355Z,20.30
2019-04-22T11:56:16.832Z,20.00
2019-04-22T11:58:46.941Z,20.00
2019-04-22T12:01:16.890Z,20.30
2019-04-22T12:03:46.341Z,20.90
2019-04-22T12:06:15.812Z,20.90
2019-04-22T12:08:45.874Z,20.70
2019-04-22T12:11:16.665Z,20.80
2019-04-22T12:13:46.289Z,20.70
2019-04-22T12:16:15.425Z,20.90
2019-04-22T12:18:47.118Z,21.00
2019-04-22T12:21:17.127Z,21.50
2019-04-22T12:23:47.240Z,21.00
2019-04-22T12:26:19.204Z,21.10
2019-04-22T12:28:48.850Z,21.20
2019-04-22T12:31:17.857Z,20.90
2019-04-22T12:33:47.637Z,20.60
2019-04-22T12:36:18.138Z,20.50
2019-04-22T12:38:47.599Z,20.50
2019-04-22T12:41:17.930Z,20.40
2019-04-22T12:43:47.513Z,20.40
2019-04-22T12:46:18.353Z,20.20
2019-04-22T12:48:47.176Z,20.10
2019-04-22T12:51:15.980Z,20.20
2019-04-22T12:53:46.249Z,20.10
2019-04-22T12:56:15.464Z,20.00
2019-04-22T12:58:45.788Z,20.00
2019-04-22T13:01:15.130Z,20.30
2019-04-22T13:03:44.664Z,20.40
2019-04-22T13:06:14.251Z,20.40
2019-04-22T13:08:43.567Z,20.10
2019-04-22T13:11:16.581Z,20.00
2019-04-22T13:13:43.039Z,19.80
2019-04-22T13:16:13.363Z,19.60
2019-04-22T13:18:50.259Z,19.60
2019-04-22T13:21:14.879Z,19.90
2019-04-22T13:23:44.516Z,20.20
2019-04-22T13:26:14.962Z,20.20
2019-04-22T13:28:45.103Z,20.10
2019-04-22T13:31:14.160Z,20.10
2019-04-22T13:33:43.172Z,20.00
2019-04-22T13:36:12.073Z,20.30
2019-04-22T13:38:42.846Z,20.50
2019-04-22T13:41:26.762Z,20.40
2019-04-22T13:43:42.916Z,20.40
2019-04-22T13:46:12.428Z,20.30
2019-04-22T13:49:11.158Z,20.20
2019-04-22T13:54:37.135Z,20.00
2019-04-22T13:56:31.474Z,19.90
2019-04-22T13:58:57.702Z,20.20
2019-04-22T14:01:16.542Z,19.90
2019-04-22T14:03:58.743Z,19.90
2019-04-22T14:06:29.005Z,19.80
2019-04-22T14:08:59.069Z,19.90
2019-04-22T14:11:39.037Z,20.00
2019-04-22T14:13:58.832Z,19.90
2019-04-22T14:16:28.999Z,20.00
2019-04-22T14:18:58.221Z,19.80
2019-04-22T14:21:27.427Z,19.80
2019-04-22T14:23:56.444Z,19.90
2019-04-22T14:26:27.093Z,19.80
2019-04-22T14:28:56.008Z,19.80
2019-04-22T14:31:26.530Z,19.90
2019-04-22T14:33:59.776Z,19.60
2019-04-22T14:36:27.476Z,19.70
2019-04-22T14:38:57.788Z,19.70
2019-04-22T14:41:42.919Z,19.70
2019-04-22T14:45:00.771Z,19.80
2019-04-22T14:46:56.740Z,19.70
2019-04-22T14:49:26.204Z,19.80
2019-04-22T14:51:51.549Z,19.70
2019-04-22T14:54:16.906Z,19.60
2019-04-22T14:56:30.522Z,19.60
2019-04-22T14:59:00.811Z,19.50
2019-04-22T15:01:30.749Z,19.60
2019-04-22T15:04:00.832Z,19.60
2019-04-22T15:06:31.532Z,19.60
2019-04-22T15:09:01.669Z,19.50
2019-04-22T15:11:43.705Z,19.30
2019-04-22T15:14:01.396Z,19.30
2019-04-22T15:16:36.375Z,19.30
2019-04-22T15:19:07.632Z,19.30
2019-04-22T15:21:36.734Z,19.30
2019-04-22T15:24:25.280Z,19.30
2019-04-22T15:26:56.495Z,19.40
2019-04-22T15:29:25.530Z,19.30
2019-04-22T15:31:55.662Z,19.30
2019-04-22T15:34:25.064Z,19.30
2019-04-22T15:36:54.215Z,19.40
2019-04-22T15:39:23.245Z,19.40
2019-04-22T15:42:00.351Z,19.30
2019-04-22T15:44:23.975Z,19.20
2019-04-22T15:46:53.274Z,19.20
2019-04-22T15:49:22.481Z,19.20
2019-04-22T15:51:53.242Z,19.20
2019-04-22T15:54:23.498Z,19.20
2019-04-22T15:56:52.719Z,19.10
2019-04-22T15:59:43.451Z,19.10
2019-04-22T16:01:53.157Z,19.00
2019-04-22T16:04:23.067Z,18.90
2019-04-22T16:06:52.771Z,18.90
2019-04-22T16:09:22.768Z,18.90
2019-04-22T16:11:51.924Z,18.90
2019-04-22T16:14:23.931Z,18.90
2019-04-22T16:16:52.497Z,18.90
2019-04-22T16:19:22.947Z,18.90
2019-04-22T16:22:03.713Z,18.80
2019-04-22T16:24:45.871Z,18.80
2019-04-22T16:27:16.713Z,18.70
2019-04-22T16:29:45.592Z,18.70
2019-04-22T16:32:15.650Z,18.70
2019-04-22T16:34:45.707Z,18.60
2019-04-22T16:37:14.801Z,18.60
2019-04-22T16:39:46.739Z,18.50
2019-04-22T16:42:25.958Z,18.40
2019-04-22T16:44:47.396Z,18.40
2019-04-22T16:47:15.724Z,18.40
2019-04-22T16:49:45.669Z,18.40
2019-04-22T16:52:16.142Z,18.40
2019-04-22T16:54:46.511Z,18.30
2019-04-22T16:57:15.816Z,18.30
2019-04-22T16:59:44.833Z,18.30
2019-04-22T17:02:26.209Z,18.30
2019-04-22T17:04:59.879Z,18.30
2019-04-22T17:07:29.893Z,18.30
2019-04-22T17:09:59.788Z,18.30
2019-04-22T17:12:41.898Z,18.20
2019-04-22T17:15:05.720Z,18.10
2019-04-22T17:17:30.798Z,18.00
2019-04-22T17:19:59.886Z,18.00
2019-04-22T17:22:29.515Z,18.00
2019-04-22T17:25:00.128Z,18.00
2019-04-22T17:27:31.384Z,18.00
2019-04-22T17:29:59.706Z,17.90
2019-04-22T17:32:28.898Z,17.80
2019-04-22T17:34:59.246Z,17.80
2019-04-22T17:37:32.057Z,17.80
2019-04-22T17:40:14.657Z,17.70
2019-04-22T17:42:53.302Z,17.70
2019-04-22T17:45:31.752Z,17.60
2019-04-22T17:48:12.852Z,17.70
2019-04-22T17:50:57.896Z,17.60
2019-04-22T17:53:24.894Z,17.50
2019-04-22T17:55:49.225Z,17.40
2019-04-22T17:58:21.054Z,17.30
2019-04-22T18:00:44.502Z,17.20
2019-04-22T18:03:08.752Z,17.20
2019-04-22T18:05:34.747Z,17.10
2019-04-22T18:08:21.784Z,17.10
2019-04-22T18:10:51.020Z,17.10
2019-04-22T18:13:25.216Z,17.00
2019-04-22T18:15:54.915Z,16.90
2019-04-22T18:18:24.464Z,16.80
2019-04-22T18:20:47.519Z,16.80
2019-04-22T18:23:09.642Z,16.70
2019-04-22T18:25:53.438Z,16.70
2019-04-22T18:28:25.630Z,16.60
2019-04-22T18:30:52.510Z,16.50
2019-04-22T18:33:24.264Z,16.50
2019-04-22T18:35:58.386Z,16.40
2019-04-22T18:38:32.466Z,16.30
2019-04-22T18:40:55.592Z,16.30
2019-04-22T18:43:28.987Z,16.30
2019-04-22T18:46:00.276Z,16.30
2019-04-22T18:48:25.524Z,16.30
2019-04-22T18:51:06.576Z,16.20
2019-04-22T18:53:54.104Z,16.20
2019-04-22T18:56:25.410Z,16.10
2019-04-22T18:58:47.505Z,16.00
2019-04-22T19:01:08.179Z,16.00
2019-04-22T19:03:49.774Z,16.00
2019-04-22T19:06:36.859Z,15.70
2019-04-22T19:09:06.452Z,15.40
2019-04-22T19:11:27.009Z,15.30
2019-04-22T19:16:36.148Z,14.90
2019-04-22T19:19:20.517Z,14.70
2019-04-22T19:21:35.490Z,14.50
2019-04-22T19:23:59.756Z,14.50
2019-04-22T19:26:44.377Z,14.30
2019-04-22T19:29:03.782Z,14.20
2019-04-22T19:31:37.346Z,14.10
2019-04-22T19:34:04.585Z,14.00
2019-04-22T19:36:42.232Z,13.90
2019-04-22T19:39:04.404Z,13.80
2019-04-22T19:41:57.977Z,13.70
2019-04-22T19:44:09.569Z,13.60
2019-04-22T19:46:34.581Z,13.70
2019-04-22T19:49:10.314Z,13.60
2019-04-22T19:51:47.650Z,13.60
2019-04-22T19:54:07.654Z,13.50
2019-04-22T19:56:35.699Z,13.40
2019-04-22T19:59:12.135Z,13.30
2019-04-22T20:01:49.818Z,13.30
2019-04-22T20:04:34.650Z,13.30
2019-04-22T20:07:07.357Z,13.30
2019-04-22T20:09:41.917Z,13.30
2019-04-22T20:12:04.384Z,13.30
2019-04-22T20:14:41.268Z,13.20
2019-04-22T20:17:02.568Z,13.30
2019-04-22T20:19:45.383Z,13.20
2019-04-22T20:22:11.461Z,13.10
2019-04-22T20:24:26.529Z,13.00
2019-04-22T20:27:16.383Z,12.90
2019-04-22T20:29:41.552Z,12.80
2019-04-22T20:32:11.568Z,12.70
2019-04-22T20:34:44.593Z,12.60
2019-04-22T20:37:16.577Z,12.60
2019-04-22T20:39:48.215Z,12.50
2019-04-22T20:44:46.129Z,12.60
2019-04-22T20:47:10.172Z,12.50
2019-04-22T20:49:47.148Z,12.40
2019-04-22T20:54:44.593Z,12.30
2019-04-22T20:57:15.506Z,12.30
2019-04-22T20:59:44.291Z,12.40
2019-04-22T21:02:13.510Z,12.40
2019-04-22T21:04:38.328Z,12.50
2019-04-22T21:07:15.126Z,12.50
2019-04-22T21:09:49.011Z,12.50
2019-04-22T21:12:14.924Z,12.40
2019-04-22T21:14:57.319Z,12.40
2019-04-22T21:17:29.070Z,12.40
2019-04-22T21:20:00.758Z,12.40
2019-04-22T21:22:22.766Z,12.40
2019-04-22T21:24:48.400Z,12.40
2019-04-22T21:27:45.508Z,12.50
2019-04-22T21:29:52.057Z,12.40
2019-04-22T21:32:31.293Z,12.40
2019-04-22T21:35:19.834Z,12.40
2019-04-22T21:37:53.084Z,12.30
2019-04-22T21:39:57.948Z,12.20
2019-04-22T21:42:39.977Z,12.20
2019-04-22T21:44:58.617Z,12.20
2019-04-22T21:47:46.187Z,12.10
2019-04-22T21:50:21.411Z,12.10
2019-04-22T21:52:33.242Z,11.90
2019-04-22T21:55:10.304Z,11.90
2019-04-22T21:57:57.172Z,11.90
2019-04-22T22:00:31.321Z,11.90
2019-04-22T22:02:59.212Z,11.80
2019-04-22T22:05:19.029Z,11.70
2019-04-22T22:07:40.363Z,11.50
2019-04-22T22:10:27.099Z,11.40
2019-04-22T22:13:00.691Z,11.30
2019-04-22T22:15:30.323Z,11.10
2019-04-22T22:17:55.754Z,11.00
2019-04-22T22:20:34.066Z,10.90
2019-04-22T22:23:09.181Z,10.80
2019-04-22T22:25:30.193Z,10.70
2019-04-22T22:28:01.161Z,10.70
2019-04-22T22:30:48.292Z,10.80
2019-04-22T22:33:05.834Z,10.70
2019-04-22T22:35:36.047Z,10.70
2019-04-22T22:38:06.721Z,10.70
2019-04-22T22:40:21.068Z,10.70
2019-04-22T22:42:49.894Z,10.70
2019-04-22T22:45:28.085Z,10.80
2019-04-22T22:48:13.373Z,10.80
2019-04-22T22:50:37.498Z,10.80
2019-04-22T22:55:39.873Z,10.70
2019-04-22T22:58:13.151Z,10.60
2019-04-22T23:00:42.805Z,10.60
2019-04-22T23:05:45.357Z,10.70
2019-04-22T23:08:17.473Z,10.70
2019-04-22T23:10:52.915Z,10.70
2019-04-22T23:13:20.505Z,10.70
2019-04-22T23:15:38.721Z,10.80
2019-04-22T23:17:54.135Z,10.80
2019-04-22T23:20:27.495Z,10.80
2019-04-22T23:23:17.270Z,10.70
2019-04-22T23:25:54.783Z,10.70
2019-04-22T23:28:24.493Z,10.70
2019-04-22T23:31:04.195Z,10.60
2019-04-22T23:33:57.280Z,10.60
2019-04-22T23:36:47.555Z,10.50
2019-04-22T23:39:17.110Z,10.50
2019-04-22T23:41:51.209Z,10.50
2019-04-22T23:44:17.777Z,10.50
2019-04-22T23:47:01.588Z,10.50
2019-04-22T23:49:29.829Z,10.50
2019-04-22T23:52:10.151Z,10.40
2019-04-22T23:54:44.935Z,10.30
2019-04-22T23:57:09.018Z,10.30
